Rothbury, United Kingdom
Current Conditions -  °F | °C
As of 4:50 AM on Tuesday 21 Oct 2014 (Local Time) from EGQM Reporting Station
Rain Showers Rain Showers  
Wind Chill: 54°   Ceiling: 1700
Heat Index: 54°   Visibility: 5mi
Dew Point: 54°   Wind: 17mph
Humidity: 100%   Direction: 160°SSE
Pressure: 29.15"   Gusts: NA
Location:  55.31°N, 1.91°W
Report Text: EGQM 210350Z AUTO 16015KT 8000 -SHRA BKN017/// BKN024/// 12/12 Q0987
Loading
Personal Weather Stations






























Interactive Weather Map
Tropical Storm Tracking
New forecast layout! Learn more

10-Day Weather Forecast

Advertisements
Track Severe Weather on mobile